sensor_id;sensor_type;location;lat;lon;timestamp;P1;durP1;ratioP1;P2;durP2;ratioP2
7377;SDS011;3730;50.856;12.776;2023-03-04T00:01:49;26.97;;;16.63;;
7377;SDS011;3730;50.856;12.776;2023-03-04T00:04:15;28.13;;;16.80;;
7377;SDS011;3730;50.856;12.776;2023-03-04T00:06:41;26.87;;;15.67;;
7377;SDS011;3730;50.856;12.776;2023-03-04T00:09:07;30.90;;;17.30;;
7377;SDS011;3730;50.856;12.776;2023-03-04T00:11:32;30.67;;;16.90;;
7377;SDS011;3730;50.856;12.776;2023-03-04T00:13:58;27.67;;;16.73;;
7377;SDS011;3730;50.856;12.776;2023-03-04T00:16:24;30.10;;;17.73;;
7377;SDS011;3730;50.856;12.776;2023-03-04T00:18:53;31.10;;;17.23;;
7377;SDS011;3730;50.856;12.776;2023-03-04T00:21:19;29.63;;;18.03;;
7377;SDS011;3730;50.856;12.776;2023-03-04T00:23:45;29.47;;;17.97;;
7377;SDS011;3730;50.856;12.776;2023-03-04T00:26:11;28.33;;;16.33;;
7377;SDS011;3730;50.856;12.776;2023-03-04T00:28:37;28.17;;;17.73;;
7377;SDS011;3730;50.856;12.776;2023-03-04T00:31:04;29.03;;;16.90;;
7377;SDS011;3730;50.856;12.776;2023-03-04T00:33:30;31.73;;;18.43;;
7377;SDS011;3730;50.856;12.776;2023-03-04T00:35:56;28.30;;;16.50;;
7377;SDS011;3730;50.856;12.776;2023-03-04T00:38:22;28.03;;;16.33;;
7377;SDS011;3730;50.856;12.776;2023-03-04T00:40:47;25.53;;;15.73;;
7377;SDS011;3730;50.856;12.776;2023-03-04T00:43:13;32.60;;;18.23;;
7377;SDS011;3730;50.856;12.776;2023-03-04T00:45:39;29.43;;;16.40;;
7377;SDS011;3730;50.856;12.776;2023-03-04T00:48:04;28.60;;;16.77;;
7377;SDS011;3730;50.856;12.776;2023-03-04T00:50:30;30.30;;;15.90;;
7377;SDS011;3730;50.856;12.776;2023-03-04T00:52:56;27.33;;;16.97;;
7377;SDS011;3730;50.856;12.776;2023-03-04T00:55:22;23.73;;;15.30;;
7377;SDS011;3730;50.856;12.776;2023-03-04T00:57:48;30.60;;;17.67;;
7377;SDS011;3730;50.856;12.776;2023-03-04T01:00:14;29.27;;;15.70;;
7377;SDS011;3730;50.856;12.776;2023-03-04T01:02:40;26.37;;;15.97;;
7377;SDS011;3730;50.856;12.776;2023-03-04T01:05:06;25.87;;;16.30;;
7377;SDS011;3730;50.856;12.776;2023-03-04T01:07:32;26.53;;;15.97;;
7377;SDS011;3730;50.856;12.776;2023-03-04T01:09:58;27.57;;;16.43;;
7377;SDS011;3730;50.856;12.776;2023-03-04T01:12:23;26.93;;;15.53;;
7377;SDS011;3730;50.856;12.776;2023-03-04T01:14:49;27.83;;;15.67;;
7377;SDS011;3730;50.856;12.776;2023-03-04T01:17:15;28.17;;;15.70;;
7377;SDS011;3730;50.856;12.776;2023-03-04T01:19:40;25.33;;;15.43;;
7377;SDS011;3730;50.856;12.776;2023-03-04T01:22:06;26.93;;;15.43;;
7377;SDS011;3730;50.856;12.776;2023-03-04T01:24:32;26.57;;;15.27;;
7377;SDS011;3730;50.856;12.776;2023-03-04T01:26:57;25.73;;;16.20;;
7377;SDS011;3730;50.856;12.776;2023-03-04T01:29:23;27.93;;;16.40;;
7377;SDS011;3730;50.856;12.776;2023-03-04T01:31:48;27.27;;;16.07;;
7377;SDS011;3730;50.856;12.776;2023-03-04T01:34:14;27.87;;;15.77;;
7377;SDS011;3730;50.856;12.776;2023-03-04T01:36:42;30.87;;;17.70;;
7377;SDS011;3730;50.856;12.776;2023-03-04T01:39:07;27.27;;;16.83;;
7377;SDS011;3730;50.856;12.776;2023-03-04T01:41:33;27.57;;;16.27;;
7377;SDS011;3730;50.856;12.776;2023-03-04T01:43:59;31.27;;;16.80;;
7377;SDS011;3730;50.856;12.776;2023-03-04T01:46:26;24.63;;;15.70;;
7377;SDS011;3730;50.856;12.776;2023-03-04T01:48:52;27.33;;;17.27;;
7377;SDS011;3730;50.856;12.776;2023-03-04T01:51:19;27.27;;;17.10;;
7377;SDS011;3730;50.856;12.776;2023-03-04T01:53:46;27.17;;;16.33;;
7377;SDS011;3730;50.856;12.776;2023-03-04T01:56:15;29.70;;;16.93;;
7377;SDS011;3730;50.856;12.776;2023-03-04T01:58:44;26.57;;;15.60;;
7377;SDS011;3730;50.856;12.776;2023-03-04T02:01:10;27.27;;;16.13;;
7377;SDS011;3730;50.856;12.776;2023-03-04T02:03:37;27.27;;;15.73;;
7377;SDS011;3730;50.856;12.776;2023-03-04T02:06:03;29.20;;;17.23;;
7377;SDS011;3730;50.856;12.776;2023-03-04T02:08:29;32.73;;;17.73;;
7377;SDS011;3730;50.856;12.776;2023-03-04T02:10:54;28.13;;;16.83;;
7377;SDS011;3730;50.856;12.776;2023-03-04T02:13:20;27.50;;;16.07;;
7377;SDS011;3730;50.856;12.776;2023-03-04T02:15:47;27.00;;;16.57;;
7377;SDS011;3730;50.856;12.776;2023-03-04T02:18:22;30.30;;;17.87;;
7377;SDS011;3730;50.856;12.776;2023-03-04T02:26:43;30.83;;;16.57;;
7377;SDS011;3730;50.856;12.776;2023-03-04T02:29:11;30.97;;;17.00;;
7377;SDS011;3730;50.856;12.776;2023-03-04T02:31:40;29.03;;;17.50;;
7377;SDS011;3730;50.856;12.776;2023-03-04T02:34:15;27.83;;;16.00;;
7377;SDS011;3730;50.856;12.776;2023-03-04T02:36:44;34.13;;;18.53;;
7377;SDS011;3730;50.856;12.776;2023-03-04T02:39:12;32.33;;;16.30;;
7377;SDS011;3730;50.856;12.776;2023-03-04T02:41:45;31.77;;;17.50;;
7377;SDS011;3730;50.856;12.776;2023-03-04T02:44:23;32.90;;;17.90;;
7377;SDS011;3730;50.856;12.776;2023-03-04T02:46:50;31.17;;;18.10;;
7377;SDS011;3730;50.856;12.776;2023-03-04T02:49:16;35.57;;;17.93;;
7377;SDS011;3730;50.856;12.776;2023-03-04T02:51:43;29.57;;;16.57;;
7377;SDS011;3730;50.856;12.776;2023-03-04T02:54:19;32.30;;;16.50;;
7377;SDS011;3730;50.856;12.776;2023-03-04T02:56:46;31.70;;;16.27;;
7377;SDS011;3730;50.856;12.776;2023-03-04T02:59:13;27.00;;;15.87;;
7377;SDS011;3730;50.856;12.776;2023-03-04T03:01:39;28.73;;;15.93;;
7377;SDS011;3730;50.856;12.776;2023-03-04T03:04:05;25.90;;;15.70;;
7377;SDS011;3730;50.856;12.776;2023-03-04T03:06:30;26.87;;;15.80;;
7377;SDS011;3730;50.856;12.776;2023-03-04T03:08:56;26.80;;;16.17;;
7377;SDS011;3730;50.856;12.776;2023-03-04T03:11:21;25.13;;;14.53;;
7377;SDS011;3730;50.856;12.776;2023-03-04T03:13:47;27.43;;;15.67;;
7377;SDS011;3730;50.856;12.776;2023-03-04T03:16:13;30.33;;;17.07;;
7377;SDS011;3730;50.856;12.776;2023-03-04T03:18:38;30.93;;;16.97;;
7377;SDS011;3730;50.856;12.776;2023-03-04T03:21:05;31.60;;;16.57;;
7377;SDS011;3730;50.856;12.776;2023-03-04T03:23:31;29.03;;;16.80;;
7377;SDS011;3730;50.856;12.776;2023-03-04T03:25:56;27.53;;;16.13;;
7377;SDS011;3730;50.856;12.776;2023-03-04T03:28:22;26.07;;;15.50;;
7377;SDS011;3730;50.856;12.776;2023-03-04T03:30:48;28.20;;;16.20;;
7377;SDS011;3730;50.856;12.776;2023-03-04T03:33:13;28.30;;;16.03;;
7377;SDS011;3730;50.856;12.776;2023-03-04T03:35:39;30.17;;;16.40;;
7377;SDS011;3730;50.856;12.776;2023-03-04T03:38:04;32.03;;;16.97;;
7377;SDS011;3730;50.856;12.776;2023-03-04T03:40:30;38.30;;;16.37;;
7377;SDS011;3730;50.856;12.776;2023-03-04T03:42:56;27.20;;;15.43;;
7377;SDS011;3730;50.856;12.776;2023-03-04T03:45:22;27.47;;;16.00;;
7377;SDS011;3730;50.856;12.776;2023-03-04T03:47:47;24.53;;;15.00;;
7377;SDS011;3730;50.856;12.776;2023-03-04T03:50:13;25.67;;;15.27;;
7377;SDS011;3730;50.856;12.776;2023-03-04T03:52:38;28.67;;;16.10;;
7377;SDS011;3730;50.856;12.776;2023-03-04T03:55:04;31.60;;;17.23;;
7377;SDS011;3730;50.856;12.776;2023-03-04T03:57:30;29.33;;;16.67;;
7377;SDS011;3730;50.856;12.776;2023-03-04T03:59:56;31.00;;;17.80;;
7377;SDS011;3730;50.856;12.776;2023-03-04T04:02:22;29.40;;;16.93;;
7377;SDS011;3730;50.856;12.776;2023-03-04T04:04:47;28.10;;;16.60;;
7377;SDS011;3730;50.856;12.776;2023-03-04T04:07:13;32.10;;;17.20;;
7377;SDS011;3730;50.856;12.776;2023-03-04T04:09:39;31.10;;;17.50;;
7377;SDS011;3730;50.856;12.776;2023-03-04T04:12:05;27.90;;;15.33;;
7377;SDS011;3730;50.856;12.776;2023-03-04T04:14:31;32.80;;;17.77;;
7377;SDS011;3730;50.856;12.776;2023-03-04T04:16:58;29.90;;;17.17;;
7377;SDS011;3730;50.856;12.776;2023-03-04T04:19:24;30.43;;;16.63;;
7377;SDS011;3730;50.856;12.776;2023-03-04T04:21:50;28.47;;;16.70;;
7377;SDS011;3730;50.856;12.776;2023-03-04T04:24:15;31.50;;;18.03;;
7377;SDS011;3730;50.856;12.776;2023-03-04T04:26:41;32.57;;;17.00;;
7377;SDS011;3730;50.856;12.776;2023-03-04T04:29:07;29.57;;;17.67;;
7377;SDS011;3730;50.856;12.776;2023-03-04T04:31:33;29.93;;;17.60;;
7377;SDS011;3730;50.856;12.776;2023-03-04T04:33:59;29.30;;;17.10;;
7377;SDS011;3730;50.856;12.776;2023-03-04T04:36:25;34.53;;;18.40;;
7377;SDS011;3730;50.856;12.776;2023-03-04T04:38:51;30.17;;;17.23;;
7377;SDS011;3730;50.856;12.776;2023-03-04T04:41:18;30.43;;;17.10;;
7377;SDS011;3730;50.856;12.776;2023-03-04T04:43:46;31.17;;;16.67;;
7377;SDS011;3730;50.856;12.776;2023-03-04T04:46:12;28.50;;;16.70;;
7377;SDS011;3730;50.856;12.776;2023-03-04T04:48:38;32.47;;;17.80;;
7377;SDS011;3730;50.856;12.776;2023-03-04T04:51:04;31.20;;;18.50;;
7377;SDS011;3730;50.856;12.776;2023-03-04T04:53:29;33.67;;;18.90;;
7377;SDS011;3730;50.856;12.776;2023-03-04T04:55:55;26.97;;;16.73;;
7377;SDS011;3730;50.856;12.776;2023-03-04T04:58:21;32.77;;;18.37;;
7377;SDS011;3730;50.856;12.776;2023-03-04T05:00:46;30.73;;;17.77;;
7377;SDS011;3730;50.856;12.776;2023-03-04T05:03:12;27.33;;;17.30;;
7377;SDS011;3730;50.856;12.776;2023-03-04T05:05:38;29.57;;;18.33;;
7377;SDS011;3730;50.856;12.776;2023-03-04T05:08:03;29.03;;;17.53;;
7377;SDS011;3730;50.856;12.776;2023-03-04T05:10:29;27.70;;;17.77;;
7377;SDS011;3730;50.856;12.776;2023-03-04T05:12:55;33.27;;;18.23;;
7377;SDS011;3730;50.856;12.776;2023-03-04T05:15:20;30.40;;;17.87;;
7377;SDS011;3730;50.856;12.776;2023-03-04T05:17:46;32.33;;;18.37;;
7377;SDS011;3730;50.856;12.776;2023-03-04T05:20:12;30.30;;;18.30;;
7377;SDS011;3730;50.856;12.776;2023-03-04T05:22:37;29.67;;;17.40;;
7377;SDS011;3730;50.856;12.776;2023-03-04T05:25:03;33.43;;;18.77;;
7377;SDS011;3730;50.856;12.776;2023-03-04T05:27:29;30.37;;;18.53;;
7377;SDS011;3730;50.856;12.776;2023-03-04T05:29:55;26.60;;;17.50;;
7377;SDS011;3730;50.856;12.776;2023-03-04T05:32:23;32.77;;;17.20;;
7377;SDS011;3730;50.856;12.776;2023-03-04T05:34:49;29.83;;;17.67;;
7377;SDS011;3730;50.856;12.776;2023-03-04T05:37:15;27.53;;;17.97;;
7377;SDS011;3730;50.856;12.776;2023-03-04T05:39:40;31.87;;;18.47;;
7377;SDS011;3730;50.856;12.776;2023-03-04T05:42:06;28.53;;;17.83;;
7377;SDS011;3730;50.856;12.776;2023-03-04T05:44:32;33.47;;;17.87;;
7377;SDS011;3730;50.856;12.776;2023-03-04T05:46:57;31.70;;;18.13;;
7377;SDS011;3730;50.856;12.776;2023-03-04T05:49:23;29.10;;;17.37;;
7377;SDS011;3730;50.856;12.776;2023-03-04T05:51:48;28.70;;;17.80;;
7377;SDS011;3730;50.856;12.776;2023-03-04T05:54:14;26.83;;;17.30;;
7377;SDS011;3730;50.856;12.776;2023-03-04T05:56:40;30.87;;;17.80;;
7377;SDS011;3730;50.856;12.776;2023-03-04T05:59:05;33.27;;;18.10;;
7377;SDS011;3730;50.856;12.776;2023-03-04T06:01:31;31.23;;;18.00;;
7377;SDS011;3730;50.856;12.776;2023-03-04T06:03:57;29.93;;;17.80;;
7377;SDS011;3730;50.856;12.776;2023-03-04T06:06:22;28.40;;;17.47;;
7377;SDS011;3730;50.856;12.776;2023-03-04T06:08:48;30.03;;;17.77;;
7377;SDS011;3730;50.856;12.776;2023-03-04T06:11:13;31.07;;;17.23;;
7377;SDS011;3730;50.856;12.776;2023-03-04T06:13:39;29.47;;;18.60;;
7377;SDS011;3730;50.856;12.776;2023-03-04T06:16:05;29.87;;;19.13;;
7377;SDS011;3730;50.856;12.776;2023-03-04T06:18:31;31.90;;;18.50;;
7377;SDS011;3730;50.856;12.776;2023-03-04T06:20:57;38.00;;;19.53;;
7377;SDS011;3730;50.856;12.776;2023-03-04T06:23:24;32.03;;;17.93;;
7377;SDS011;3730;50.856;12.776;2023-03-04T06:25:54;27.43;;;17.50;;
7377;SDS011;3730;50.856;12.776;2023-03-04T06:28:21;31.03;;;17.43;;
7377;SDS011;3730;50.856;12.776;2023-03-04T06:30:47;32.53;;;17.53;;
7377;SDS011;3730;50.856;12.776;2023-03-04T06:33:16;33.50;;;18.07;;
7377;SDS011;3730;50.856;12.776;2023-03-04T06:35:41;30.47;;;16.87;;
7377;SDS011;3730;50.856;12.776;2023-03-04T06:38:07;31.53;;;17.97;;
7377;SDS011;3730;50.856;12.776;2023-03-04T06:40:33;27.13;;;16.17;;
7377;SDS011;3730;50.856;12.776;2023-03-04T06:42:58;27.03;;;16.07;;
7377;SDS011;3730;50.856;12.776;2023-03-04T06:45:24;28.37;;;17.00;;
7377;SDS011;3730;50.856;12.776;2023-03-04T06:47:50;30.23;;;16.70;;
7377;SDS011;3730;50.856;12.776;2023-03-04T06:50:15;25.90;;;16.03;;
7377;SDS011;3730;50.856;12.776;2023-03-04T06:52:41;32.27;;;18.17;;
7377;SDS011;3730;50.856;12.776;2023-03-04T06:55:07;31.07;;;17.30;;
7377;SDS011;3730;50.856;12.776;2023-03-04T06:57:33;28.43;;;17.17;;
7377;SDS011;3730;50.856;12.776;2023-03-04T06:59:59;28.10;;;17.43;;
7377;SDS011;3730;50.856;12.776;2023-03-04T07:02:24;30.77;;;17.33;;
7377;SDS011;3730;50.856;12.776;2023-03-04T07:04:50;34.20;;;18.00;;
7377;SDS011;3730;50.856;12.776;2023-03-04T07:07:16;31.43;;;17.17;;
7377;SDS011;3730;50.856;12.776;2023-03-04T07:09:41;33.77;;;18.00;;
7377;SDS011;3730;50.856;12.776;2023-03-04T07:12:08;27.80;;;16.93;;
7377;SDS011;3730;50.856;12.776;2023-03-04T07:14:33;26.30;;;17.03;;
7377;SDS011;3730;50.856;12.776;2023-03-04T07:16:59;27.93;;;16.33;;
7377;SDS011;3730;50.856;12.776;2023-03-04T07:19:25;29.10;;;16.83;;
7377;SDS011;3730;50.856;12.776;2023-03-04T07:21:50;30.53;;;16.47;;
7377;SDS011;3730;50.856;12.776;2023-03-04T07:24:16;32.87;;;16.03;;
7377;SDS011;3730;50.856;12.776;2023-03-04T07:26:42;29.00;;;15.80;;
7377;SDS011;3730;50.856;12.776;2023-03-04T07:29:07;29.13;;;16.00;;
7377;SDS011;3730;50.856;12.776;2023-03-04T07:31:33;26.43;;;14.87;;
7377;SDS011;3730;50.856;12.776;2023-03-04T07:34:04;30.00;;;15.70;;
7377;SDS011;3730;50.856;12.776;2023-03-04T07:36:32;25.70;;;15.03;;
7377;SDS011;3730;50.856;12.776;2023-03-04T07:38:59;27.63;;;15.03;;
7377;SDS011;3730;50.856;12.776;2023-03-04T07:41:26;27.90;;;15.33;;
7377;SDS011;3730;50.856;12.776;2023-03-04T07:43:52;28.43;;;15.47;;
7377;SDS011;3730;50.856;12.776;2023-03-04T07:46:18;30.70;;;15.73;;
7377;SDS011;3730;50.856;12.776;2023-03-04T07:48:44;24.83;;;14.20;;
7377;SDS011;3730;50.856;12.776;2023-03-04T07:51:19;27.60;;;14.23;;
7377;SDS011;3730;50.856;12.776;2023-03-04T07:53:48;26.73;;;13.67;;
7377;SDS011;3730;50.856;12.776;2023-03-04T07:56:16;25.03;;;13.77;;
7377;SDS011;3730;50.856;12.776;2023-03-04T07:58:44;23.63;;;13.37;;
7377;SDS011;3730;50.856;12.776;2023-03-04T08:01:11;30.00;;;13.43;;
7377;SDS011;3730;50.856;12.776;2023-03-04T08:03:39;22.90;;;12.40;;
7377;SDS011;3730;50.856;12.776;2023-03-04T08:06:05;23.20;;;13.50;;
7377;SDS011;3730;50.856;12.776;2023-03-04T08:08:32;27.07;;;12.63;;
7377;SDS011;3730;50.856;12.776;2023-03-04T08:10:58;24.67;;;13.27;;
7377;SDS011;3730;50.856;12.776;2023-03-04T08:13:24;29.00;;;13.90;;
7377;SDS011;3730;50.856;12.776;2023-03-04T08:15:50;25.83;;;13.40;;
7377;SDS011;3730;50.856;12.776;2023-03-04T08:18:15;27.80;;;14.33;;
7377;SDS011;3730;50.856;12.776;2023-03-04T08:20:41;29.13;;;12.57;;
7377;SDS011;3730;50.856;12.776;2023-03-04T08:23:08;24.90;;;12.00;;
7377;SDS011;3730;50.856;12.776;2023-03-04T08:25:37;24.43;;;12.60;;
7377;SDS011;3730;50.856;12.776;2023-03-04T08:28:07;19.40;;;11.83;;
7377;SDS011;3730;50.856;12.776;2023-03-04T08:30:34;30.47;;;13.43;;
7377;SDS011;3730;50.856;12.776;2023-03-04T08:33:01;25.87;;;12.07;;
7377;SDS011;3730;50.856;12.776;2023-03-04T08:35:28;28.50;;;12.53;;
7377;SDS011;3730;50.856;12.776;2023-03-04T08:37:54;25.37;;;11.70;;
7377;SDS011;3730;50.856;12.776;2023-03-04T08:40:19;25.97;;;11.97;;
7377;SDS011;3730;50.856;12.776;2023-03-04T08:42:45;21.37;;;12.63;;
7377;SDS011;3730;50.856;12.776;2023-03-04T08:45:11;25.47;;;11.03;;
7377;SDS011;3730;50.856;12.776;2023-03-04T08:47:36;23.57;;;11.07;;
7377;SDS011;3730;50.856;12.776;2023-03-04T08:50:03;27.40;;;11.33;;
7377;SDS011;3730;50.856;12.776;2023-03-04T08:52:30;21.20;;;10.77;;
7377;SDS011;3730;50.856;12.776;2023-03-04T08:54:56;23.10;;;10.63;;
7377;SDS011;3730;50.856;12.776;2023-03-04T08:57:22;28.73;;;10.80;;
7377;SDS011;3730;50.856;12.776;2023-03-04T08:59:48;20.90;;;10.33;;
7377;SDS011;3730;50.856;12.776;2023-03-04T09:02:14;26.30;;;10.77;;
7377;SDS011;3730;50.856;12.776;2023-03-04T09:04:39;26.63;;;11.33;;
7377;SDS011;3730;50.856;12.776;2023-03-04T09:07:05;19.17;;;10.03;;
7377;SDS011;3730;50.856;12.776;2023-03-04T09:09:32;23.03;;;9.77;;
7377;SDS011;3730;50.856;12.776;2023-03-04T09:11:58;22.70;;;9.40;;
7377;SDS011;3730;50.856;12.776;2023-03-04T09:14:24;21.17;;;10.33;;
7377;SDS011;3730;50.856;12.776;2023-03-04T09:16:50;21.50;;;9.30;;
7377;SDS011;3730;50.856;12.776;2023-03-04T09:19:15;23.40;;;9.77;;
7377;SDS011;3730;50.856;12.776;2023-03-04T09:21:41;57.83;;;28.50;;
7377;SDS011;3730;50.856;12.776;2023-03-04T09:24:06;21.77;;;10.30;;
7377;SDS011;3730;50.856;12.776;2023-03-04T09:26:32;19.00;;;9.33;;
7377;SDS011;3730;50.856;12.776;2023-03-04T09:28:59;23.43;;;9.30;;
7377;SDS011;3730;50.856;12.776;2023-03-04T09:31:26;20.17;;;9.20;;
7377;SDS011;3730;50.856;12.776;2023-03-04T09:33:53;26.20;;;10.27;;
7377;SDS011;3730;50.856;12.776;2023-03-04T09:36:19;25.53;;;10.07;;
7377;SDS011;3730;50.856;12.776;2023-03-04T09:38:45;17.63;;;8.80;;
7377;SDS011;3730;50.856;12.776;2023-03-04T09:41:15;19.03;;;8.70;;
7377;SDS011;3730;50.856;12.776;2023-03-04T09:43:43;16.53;;;8.37;;
7377;SDS011;3730;50.856;12.776;2023-03-04T09:46:14;22.10;;;8.33;;
7377;SDS011;3730;50.856;12.776;2023-03-04T09:48:44;27.27;;;9.43;;
7377;SDS011;3730;50.856;12.776;2023-03-04T09:51:19;19.57;;;8.20;;
7377;SDS011;3730;50.856;12.776;2023-03-04T09:53:52;16.50;;;8.03;;
7377;SDS011;3730;50.856;12.776;2023-03-04T09:56:22;15.60;;;7.90;;
7377;SDS011;3730;50.856;12.776;2023-03-04T09:58:51;17.57;;;8.80;;
7377;SDS011;3730;50.856;12.776;2023-03-04T10:01:30;15.90;;;8.17;;
7377;SDS011;3730;50.856;12.776;2023-03-04T10:04:09;21.17;;;9.10;;
7377;SDS011;3730;50.856;12.776;2023-03-04T10:06:38;22.87;;;8.40;;
7377;SDS011;3730;50.856;12.776;2023-03-04T10:09:05;19.50;;;8.60;;
7377;SDS011;3730;50.856;12.776;2023-03-04T10:11:43;21.27;;;9.03;;
7377;SDS011;3730;50.856;12.776;2023-03-04T10:24:55;15.97;;;8.20;;
7377;SDS011;3730;50.856;12.776;2023-03-04T10:27:21;20.00;;;8.03;;
7377;SDS011;3730;50.856;12.776;2023-03-04T10:29:48;23.67;;;8.87;;
7377;SDS011;3730;50.856;12.776;2023-03-04T10:32:15;20.33;;;8.80;;
7377;SDS011;3730;50.856;12.776;2023-03-04T10:34:42;22.80;;;9.00;;
7377;SDS011;3730;50.856;12.776;2023-03-04T10:37:08;17.40;;;7.60;;
7377;SDS011;3730;50.856;12.776;2023-03-04T10:39:43;17.27;;;8.13;;
7377;SDS011;3730;50.856;12.776;2023-03-04T10:44:40;16.00;;;7.43;;
7377;SDS011;3730;50.856;12.776;2023-03-04T10:47:08;13.20;;;7.57;;
7377;SDS011;3730;50.856;12.776;2023-03-04T10:49:36;16.53;;;7.50;;
7377;SDS011;3730;50.856;12.776;2023-03-04T10:52:14;17.37;;;7.83;;
7377;SDS011;3730;50.856;12.776;2023-03-04T10:54:47;19.23;;;8.60;;
7377;SDS011;3730;50.856;12.776;2023-03-04T10:57:17;15.37;;;6.80;;
7377;SDS011;3730;50.856;12.776;2023-03-04T10:59:56;14.93;;;7.10;;
7377;SDS011;3730;50.856;12.776;2023-03-04T11:02:45;17.70;;;6.50;;
7377;SDS011;3730;50.856;12.776;2023-03-04T11:05:17;16.97;;;7.23;;
7377;SDS011;3730;50.856;12.776;2023-03-04T11:07:51;14.10;;;6.40;;
7377;SDS011;3730;50.856;12.776;2023-03-04T11:10:56;11.40;;;6.40;;
7377;SDS011;3730;50.856;12.776;2023-03-04T11:13:17;14.40;;;7.13;;
7377;SDS011;3730;50.856;12.776;2023-03-04T11:21:03;18.10;;;6.73;;
7377;SDS011;3730;50.856;12.776;2023-03-04T11:26:13;10.97;;;6.00;;
7377;SDS011;3730;50.856;12.776;2023-03-04T11:28:42;18.97;;;6.27;;
7377;SDS011;3730;50.856;12.776;2023-03-04T11:31:11;17.50;;;6.17;;
7377;SDS011;3730;50.856;12.776;2023-03-04T11:38:38;14.90;;;6.23;;
7377;SDS011;3730;50.856;12.776;2023-03-04T11:43:51;14.73;;;6.20;;
7377;SDS011;3730;50.856;12.776;2023-03-04T11:53:59;13.60;;;5.53;;
7377;SDS011;3730;50.856;12.776;2023-03-04T11:56:33;11.73;;;5.60;;
7377;SDS011;3730;50.856;12.776;2023-03-04T11:59:14;12.43;;;4.87;;
7377;SDS011;3730;50.856;12.776;2023-03-04T12:11:56;6.87;;;3.73;;
7377;SDS011;3730;50.856;12.776;2023-03-04T12:14:28;5.83;;;3.20;;
7377;SDS011;3730;50.856;12.776;2023-03-04T12:17:11;9.63;;;3.40;;
7377;SDS011;3730;50.856;12.776;2023-03-04T12:29:47;5.50;;;3.13;;
7377;SDS011;3730;50.856;12.776;2023-03-04T12:40:18;2.73;;;2.53;;
7377;SDS011;3730;50.856;12.776;2023-03-04T12:43:07;9.07;;;3.20;;
7377;SDS011;3730;50.856;12.776;2023-03-04T12:51:18;3.13;;;2.30;;
7377;SDS011;3730;50.856;12.776;2023-03-04T12:54:09;5.67;;;2.50;;
7377;SDS011;3730;50.856;12.776;2023-03-04T12:56:49;7.03;;;2.67;;
7377;SDS011;3730;50.856;12.776;2023-03-04T12:59:19;4.30;;;2.30;;
7377;SDS011;3730;50.856;12.776;2023-03-04T13:09:57;2.93;;;2.03;;
7377;SDS011;3730;50.856;12.776;2023-03-04T13:12:29;6.97;;;3.40;;
7377;SDS011;3730;50.856;12.776;2023-03-04T13:17:47;2.93;;;2.20;;
7377;SDS011;3730;50.856;12.776;2023-03-04T13:22:46;3.67;;;2.17;;
7377;SDS011;3730;50.856;12.776;2023-03-04T13:43:46;3.03;;;2.00;;
7377;SDS011;3730;50.856;12.776;2023-03-04T13:46:41;3.53;;;2.00;;
7377;SDS011;3730;50.856;12.776;2023-03-04T13:49:15;3.77;;;2.00;;
7377;SDS011;3730;50.856;12.776;2023-03-04T13:51:48;2.67;;;1.70;;
7377;SDS011;3730;50.856;12.776;2023-03-04T13:54:28;4.17;;;1.90;;
7377;SDS011;3730;50.856;12.776;2023-03-04T13:59:40;4.07;;;2.17;;
7377;SDS011;3730;50.856;12.776;2023-03-04T14:12:48;3.33;;;2.30;;
7377;SDS011;3730;50.856;12.776;2023-03-04T14:15:26;7.53;;;2.77;;
7377;SDS011;3730;50.856;12.776;2023-03-04T14:17:57;4.77;;;1.93;;
7377;SDS011;3730;50.856;12.776;2023-03-04T14:22:58;2.47;;;1.90;;
7377;SDS011;3730;50.856;12.776;2023-03-04T14:25:26;3.77;;;2.30;;
7377;SDS011;3730;50.856;12.776;2023-03-04T14:28:09;3.23;;;2.10;;
7377;SDS011;3730;50.856;12.776;2023-03-04T14:30:36;3.43;;;1.93;;
7377;SDS011;3730;50.856;12.776;2023-03-04T14:33:05;4.93;;;2.63;;
7377;SDS011;3730;50.856;12.776;2023-03-04T14:35:32;3.83;;;2.20;;
7377;SDS011;3730;50.856;12.776;2023-03-04T14:40:43;2.77;;;2.30;;
7377;SDS011;3730;50.856;12.776;2023-03-04T14:43:12;3.03;;;2.60;;
7377;SDS011;3730;50.856;12.776;2023-03-04T14:45:42;4.23;;;2.43;;
7377;SDS011;3730;50.856;12.776;2023-03-04T14:48:13;3.57;;;2.40;;
7377;SDS011;3730;50.856;12.776;2023-03-04T14:50:47;7.63;;;2.40;;
7377;SDS011;3730;50.856;12.776;2023-03-04T14:53:15;4.77;;;2.30;;
7377;SDS011;3730;50.856;12.776;2023-03-04T14:55:59;5.83;;;2.40;;
7377;SDS011;3730;50.856;12.776;2023-03-04T14:58:33;4.07;;;2.47;;
7377;SDS011;3730;50.856;12.776;2023-03-04T15:01:11;4.73;;;2.77;;
7377;SDS011;3730;50.856;12.776;2023-03-04T15:03:52;7.67;;;2.57;;
7377;SDS011;3730;50.856;12.776;2023-03-04T15:06:28;4.37;;;2.93;;
7377;SDS011;3730;50.856;12.776;2023-03-04T15:09:00;5.20;;;3.10;;
7377;SDS011;3730;50.856;12.776;2023-03-04T15:14:44;6.53;;;3.17;;
7377;SDS011;3730;50.856;12.776;2023-03-04T15:17:23;5.47;;;3.10;;
7377;SDS011;3730;50.856;12.776;2023-03-04T15:25:04;3.97;;;3.07;;
7377;SDS011;3730;50.856;12.776;2023-03-04T15:27:30;3.97;;;2.77;;
7377;SDS011;3730;50.856;12.776;2023-03-04T15:29:57;6.17;;;3.10;;
7377;SDS011;3730;50.856;12.776;2023-03-04T15:32:24;6.10;;;3.80;;
7377;SDS011;3730;50.856;12.776;2023-03-04T15:34:50;3.70;;;3.10;;
7377;SDS011;3730;50.856;12.776;2023-03-04T15:37:27;3.83;;;3.43;;
7377;SDS011;3730;50.856;12.776;2023-03-04T15:39:54;6.37;;;4.23;;
7377;SDS011;3730;50.856;12.776;2023-03-04T15:42:21;5.00;;;4.00;;
7377;SDS011;3730;50.856;12.776;2023-03-04T15:44:47;4.93;;;3.50;;
7377;SDS011;3730;50.856;12.776;2023-03-04T15:47:13;4.43;;;3.77;;
7377;SDS011;3730;50.856;12.776;2023-03-04T15:49:39;3.87;;;3.40;;
7377;SDS011;3730;50.856;12.776;2023-03-04T15:52:06;4.77;;;3.43;;
7377;SDS011;3730;50.856;12.776;2023-03-04T15:54:37;6.10;;;3.90;;
7377;SDS011;3730;50.856;12.776;2023-03-04T15:57:03;4.00;;;3.57;;
7377;SDS011;3730;50.856;12.776;2023-03-04T15:59:40;6.70;;;4.17;;
7377;SDS011;3730;50.856;12.776;2023-03-04T16:02:20;6.87;;;4.40;;
7377;SDS011;3730;50.856;12.776;2023-03-04T16:04:46;4.73;;;4.23;;
7377;SDS011;3730;50.856;12.776;2023-03-04T16:07:15;7.60;;;4.37;;
7377;SDS011;3730;50.856;12.776;2023-03-04T16:09:42;8.03;;;4.40;;
7377;SDS011;3730;50.856;12.776;2023-03-04T16:12:10;7.73;;;4.57;;
7377;SDS011;3730;50.856;12.776;2023-03-04T16:14:36;6.23;;;4.80;;
7377;SDS011;3730;50.856;12.776;2023-03-04T16:17:02;6.43;;;4.97;;
7377;SDS011;3730;50.856;12.776;2023-03-04T16:19:28;8.47;;;6.07;;
7377;SDS011;3730;50.856;12.776;2023-03-04T16:21:54;8.60;;;5.97;;
7377;SDS011;3730;50.856;12.776;2023-03-04T16:24:21;8.17;;;6.00;;
7377;SDS011;3730;50.856;12.776;2023-03-04T16:26:47;10.00;;;6.23;;
7377;SDS011;3730;50.856;12.776;2023-03-04T16:29:14;7.13;;;6.33;;
7377;SDS011;3730;50.856;12.776;2023-03-04T16:31:40;8.10;;;6.27;;
7377;SDS011;3730;50.856;12.776;2023-03-04T16:34:06;9.63;;;6.63;;
7377;SDS011;3730;50.856;12.776;2023-03-04T16:36:31;15.83;;;9.70;;
7377;SDS011;3730;50.856;12.776;2023-03-04T16:39:00;9.47;;;6.93;;
7377;SDS011;3730;50.856;12.776;2023-03-04T16:41:29;12.53;;;7.80;;
7377;SDS011;3730;50.856;12.776;2023-03-04T16:43:57;11.70;;;7.37;;
7377;SDS011;3730;50.856;12.776;2023-03-04T16:46:23;11.27;;;6.13;;
7377;SDS011;3730;50.856;12.776;2023-03-04T16:48:49;9.63;;;7.07;;
7377;SDS011;3730;50.856;12.776;2023-03-04T16:51:16;10.23;;;6.77;;
7377;SDS011;3730;50.856;12.776;2023-03-04T16:53:44;11.90;;;7.60;;
7377;SDS011;3730;50.856;12.776;2023-03-04T16:56:14;10.13;;;7.10;;
7377;SDS011;3730;50.856;12.776;2023-03-04T16:58:40;10.93;;;7.37;;
7377;SDS011;3730;50.856;12.776;2023-03-04T17:01:26;11.97;;;7.30;;
7377;SDS011;3730;50.856;12.776;2023-03-04T17:03:53;11.30;;;7.30;;